createdAt,value
2022-12-05T00:00:13.643Z,9.30
2022-12-05T00:03:05.838Z,11.10
2022-12-05T00:05:33.591Z,8.90
2022-12-05T00:08:01.475Z,10.40
2022-12-05T00:10:29.466Z,10.00
2022-12-05T00:12:57.230Z,10.40
2022-12-05T00:15:25.073Z,9.60
2022-12-05T00:17:52.913Z,8.20
2022-12-05T00:20:21.219Z,9.10
2022-12-05T00:22:48.992Z,7.40
2022-12-05T00:25:16.912Z,9.00
2022-12-05T00:27:44.665Z,7.80
2022-12-05T00:30:12.716Z,8.70
2022-12-05T00:32:40.482Z,7.90
2022-12-05T00:35:08.675Z,8.00
2022-12-05T00:37:36.460Z,7.60
2022-12-05T00:40:05.211Z,7.20
2022-12-05T00:42:33.204Z,8.70
2022-12-05T00:45:00.982Z,9.10
2022-12-05T00:47:28.791Z,8.50
2022-12-05T00:49:56.953Z,9.10
2022-12-05T00:52:25.009Z,9.20
2022-12-05T00:54:52.833Z,9.10
2022-12-05T00:57:20.651Z,8.50
2022-12-05T00:59:48.570Z,8.90
2022-12-05T01:02:16.418Z,7.90
2022-12-05T01:04:44.282Z,9.90
2022-12-05T01:07:12.063Z,7.30
2022-12-05T01:09:39.862Z,7.50
2022-12-05T01:12:07.923Z,9.70
2022-12-05T01:14:35.869Z,8.90
2022-12-05T01:17:03.940Z,9.90
2022-12-05T01:19:32.602Z,9.70
2022-12-05T01:22:00.525Z,11.40
2022-12-05T01:24:29.633Z,9.40
2022-12-05T01:26:57.888Z,8.60
2022-12-05T01:29:26.316Z,9.00
2022-12-05T01:31:54.904Z,10.20
2022-12-05T01:34:23.146Z,10.90
2022-12-05T01:36:51.294Z,9.80
2022-12-05T01:39:19.082Z,8.40
2022-12-05T01:41:49.021Z,8.40
2022-12-05T01:44:16.750Z,9.80
2022-12-05T01:46:47.749Z,8.20
2022-12-05T01:49:16.944Z,7.10
2022-12-05T01:51:50.189Z,8.60
2022-12-05T01:54:19.459Z,10.20
2022-12-05T01:56:53.201Z,11.20
2022-12-05T01:59:22.765Z,10.00
2022-12-05T02:01:51.253Z,10.50
2022-12-05T02:04:19.333Z,10.40
2022-12-05T02:06:47.754Z,10.50
2022-12-05T02:09:15.560Z,12.20
2022-12-05T02:11:53.053Z,10.30
2022-12-05T02:14:46.046Z,11.20
2022-12-05T02:17:51.798Z,11.50
2022-12-05T02:20:33.098Z,10.70
2022-12-05T02:23:20.397Z,10.60
2022-12-05T02:25:54.296Z,11.90
2022-12-05T02:28:44.978Z,10.90
2022-12-05T02:31:16.904Z,9.80
2022-12-05T02:34:13.270Z,11.10
2022-12-05T02:37:18.419Z,11.10
2022-12-05T02:40:29.387Z,12.80
2022-12-05T02:43:04.862Z,9.50
2022-12-05T02:45:37.440Z,11.50
2022-12-05T02:48:06.820Z,8.20
2022-12-05T02:50:38.337Z,9.00
2022-12-05T02:53:12.702Z,9.80
2022-12-05T02:55:41.938Z,9.60
2022-12-05T02:58:17.167Z,9.30
2022-12-05T03:00:49.434Z,9.90
2022-12-05T03:03:21.299Z,12.70
2022-12-05T03:05:52.678Z,11.30
2022-12-05T03:08:24.754Z,9.60
2022-12-05T03:10:54.132Z,8.30
2022-12-05T03:13:33.456Z,10.50
2022-12-05T03:16:06.764Z,9.70
2022-12-05T03:18:40.627Z,8.20
2022-12-05T03:21:30.374Z,9.90
2022-12-05T03:24:06.706Z,10.30
2022-12-05T03:26:51.619Z,9.40
2022-12-05T03:29:19.439Z,9.20
2022-12-05T03:32:08.400Z,9.90
2022-12-05T03:34:53.348Z,9.40
2022-12-05T03:38:07.526Z,9.90
2022-12-05T03:40:38.078Z,10.30
2022-12-05T03:43:12.491Z,8.40
2022-12-05T03:45:58.519Z,6.40
2022-12-05T03:48:42.772Z,7.10
2022-12-05T03:51:13.755Z,9.30
2022-12-05T03:56:19.446Z,11.00
2022-12-05T03:58:58.633Z,11.20
2022-12-05T04:01:30.872Z,10.90
2022-12-05T04:04:03.847Z,10.70
2022-12-05T04:06:38.592Z,11.00
2022-12-05T04:09:17.465Z,8.60
2022-12-05T04:11:51.119Z,11.70
2022-12-05T04:14:53.881Z,11.10
2022-12-05T04:17:34.082Z,10.10
2022-12-05T04:20:36.095Z,8.30
2022-12-05T04:23:04.550Z,9.20
2022-12-05T04:26:03.425Z,10.20
2022-12-05T04:28:43.925Z,10.00
2022-12-05T04:31:18.075Z,11.40
2022-12-05T04:33:54.946Z,10.90
2022-12-05T04:36:33.737Z,9.80
2022-12-05T04:39:04.030Z,9.60
2022-12-05T04:41:37.297Z,7.80
2022-12-05T04:44:10.541Z,8.20
2022-12-05T04:46:41.866Z,9.90
2022-12-05T04:49:18.502Z,10.00
2022-12-05T04:51:50.802Z,10.00
2022-12-05T04:54:29.717Z,11.50
2022-12-05T04:57:07.194Z,11.20
2022-12-05T04:59:35.632Z,11.40
2022-12-05T05:02:07.971Z,12.70
2022-12-05T05:04:41.715Z,12.80
2022-12-05T05:07:13.257Z,13.00
2022-12-05T05:09:42.043Z,9.80
2022-12-05T05:12:13.185Z,11.70
2022-12-05T05:14:43.624Z,12.00
2022-12-05T05:17:11.477Z,11.80
2022-12-05T05:19:39.397Z,10.50
2022-12-05T05:22:07.424Z,10.50
2022-12-05T05:24:35.308Z,11.80
2022-12-05T05:27:03.259Z,9.80
2022-12-05T05:29:31.157Z,8.70
2022-12-05T05:31:58.919Z,9.60
2022-12-05T05:34:28.715Z,9.10
2022-12-05T05:36:56.521Z,10.00
2022-12-05T05:39:24.383Z,9.90
2022-12-05T05:41:52.249Z,9.50
2022-12-05T05:44:20.105Z,9.70
2022-12-05T05:46:47.888Z,8.60
2022-12-05T05:49:15.892Z,9.60
2022-12-05T05:51:43.765Z,10.30
2022-12-05T05:54:11.748Z,12.00
2022-12-05T05:56:40.995Z,10.80
2022-12-05T05:59:09.834Z,10.80
2022-12-05T06:01:37.635Z,13.00
2022-12-05T06:04:06.012Z,11.70
2022-12-05T06:06:34.230Z,11.90
2022-12-05T06:09:02.054Z,10.90
2022-12-05T06:11:30.129Z,11.70
2022-12-05T06:14:03.305Z,12.60
2022-12-05T06:16:32.029Z,11.40
2022-12-05T06:19:04.459Z,11.50
2022-12-05T06:21:32.369Z,11.80
2022-12-05T06:24:00.526Z,10.60
2022-12-05T06:26:28.415Z,10.50
2022-12-05T06:28:56.534Z,10.50
2022-12-05T06:31:28.467Z,10.90
2022-12-05T06:34:01.002Z,10.20
2022-12-05T06:36:29.714Z,11.80
2022-12-05T06:38:59.032Z,11.50
2022-12-05T06:41:30.468Z,10.20
2022-12-05T06:44:02.124Z,11.30
2022-12-05T06:46:31.156Z,10.60
2022-12-05T06:48:59.856Z,10.00
2022-12-05T06:51:27.722Z,10.90
2022-12-05T06:53:56.470Z,11.30
2022-12-05T06:56:24.290Z,10.30
2022-12-05T06:58:53.852Z,10.40
2022-12-05T07:01:39.341Z,9.70
2022-12-05T07:04:13.357Z,11.20
2022-12-05T07:06:48.708Z,11.90
2022-12-05T07:09:21.197Z,12.20
2022-12-05T07:14:45.346Z,11.90
2022-12-05T07:17:06.275Z,11.70
2022-12-05T07:19:34.151Z,11.30
2022-12-05T07:22:02.009Z,10.10
2022-12-05T07:24:29.873Z,11.10
2022-12-05T07:26:57.729Z,10.40
2022-12-05T07:29:25.546Z,11.80
2022-12-05T07:31:54.657Z,11.30
2022-12-05T07:34:22.575Z,12.00
2022-12-05T07:36:50.460Z,10.80
2022-12-05T07:39:18.349Z,11.80
2022-12-05T07:41:46.162Z,12.50
2022-12-05T07:44:14.045Z,12.50
2022-12-05T07:46:41.808Z,12.40
2022-12-05T07:49:09.662Z,11.00
2022-12-05T07:51:37.736Z,12.80
2022-12-05T07:54:06.384Z,9.50
2022-12-05T07:56:34.475Z,9.70
2022-12-05T07:59:02.337Z,10.80
2022-12-05T08:01:31.111Z,9.90
2022-12-05T08:04:00.307Z,12.00
2022-12-05T08:06:30.643Z,10.40
2022-12-05T08:08:58.494Z,12.30
2022-12-05T08:11:30.192Z,11.10
2022-12-05T08:13:59.035Z,13.00
2022-12-05T08:16:29.907Z,11.70
2022-12-05T08:19:06.867Z,12.20
2022-12-05T08:21:35.462Z,12.20
2022-12-05T08:24:07.874Z,11.80
2022-12-05T08:26:38.268Z,10.30
2022-12-05T08:29:10.862Z,11.90
2022-12-05T08:31:50.535Z,11.00
2022-12-05T08:34:21.221Z,10.60
2022-12-05T08:39:19.151Z,10.40
2022-12-05T08:41:48.543Z,9.90
2022-12-05T08:44:18.697Z,9.50
2022-12-05T08:46:49.180Z,10.80
2022-12-05T08:49:18.586Z,8.40
2022-12-05T08:51:46.613Z,7.30
2022-12-05T08:54:14.936Z,5.40
2022-12-05T08:56:42.863Z,6.70
2022-12-05T08:59:10.797Z,7.50
2022-12-05T09:01:39.484Z,8.60
2022-12-05T09:04:08.434Z,7.10
2022-12-05T09:06:36.991Z,6.50
2022-12-05T09:09:08.830Z,7.70
2022-12-05T09:11:41.034Z,7.20
2022-12-05T09:14:09.145Z,6.90
2022-12-05T09:16:39.335Z,8.60
2022-12-05T09:19:18.160Z,9.20
2022-12-05T09:21:46.111Z,7.30
2022-12-05T09:24:14.662Z,7.40
2022-12-05T09:26:44.154Z,7.30
2022-12-05T09:29:17.104Z,7.20
2022-12-05T09:31:48.788Z,6.40
2022-12-05T09:34:18.634Z,6.70
2022-12-05T09:36:55.751Z,6.80
2022-12-05T09:39:26.403Z,7.10
2022-12-05T09:42:05.979Z,6.80
2022-12-05T09:45:15.504Z,6.40
2022-12-05T09:47:46.163Z,6.90
2022-12-05T09:50:30.904Z,6.50
2022-12-05T09:53:07.897Z,7.80
2022-12-05T09:56:00.551Z,8.00
2022-12-05T09:58:37.082Z,8.10
2022-12-05T10:01:30.216Z,9.10
2022-12-05T10:04:04.209Z,9.80
2022-12-05T10:07:10.352Z,10.30
2022-12-05T10:09:48.946Z,10.00
2022-12-05T10:12:41.708Z,10.50
2022-12-05T10:15:37.546Z,11.80
2022-12-05T10:18:16.942Z,9.90
2022-12-05T10:20:57.015Z,9.20
2022-12-05T10:26:21.112Z,7.90
2022-12-05T10:29:15.195Z,7.40
2022-12-05T10:31:45.709Z,8.20
2022-12-05T10:34:31.284Z,6.30
2022-12-05T10:37:10.511Z,6.90
2022-12-05T10:39:39.006Z,6.30
2022-12-05T10:42:12.550Z,5.50
2022-12-05T10:44:40.842Z,5.80
2022-12-05T10:47:09.433Z,6.00
2022-12-05T10:49:38.528Z,6.30
2022-12-05T10:52:06.842Z,7.10
2022-12-05T10:54:44.562Z,6.10
2022-12-05T10:57:31.114Z,7.10
2022-12-05T11:00:11.071Z,7.40
2022-12-05T11:02:41.969Z,5.70
2022-12-05T11:05:10.270Z,6.40
2022-12-05T11:07:44.084Z,7.50
2022-12-05T11:10:26.160Z,8.00
2022-12-05T11:12:57.968Z,7.40
2022-12-05T11:15:28.696Z,6.90
2022-12-05T11:18:00.768Z,8.80
2022-12-05T11:20:28.450Z,7.60
2022-12-05T11:23:01.428Z,8.70
2022-12-05T11:25:35.993Z,8.30
2022-12-05T11:28:35.851Z,9.10
2022-12-05T11:31:12.337Z,8.70
2022-12-05T11:33:41.018Z,7.60
2022-12-05T11:36:18.749Z,7.50
2022-12-05T11:38:47.071Z,7.90
2022-12-05T11:41:47.774Z,8.80
2022-12-05T11:45:03.567Z,6.60
2022-12-05T11:47:40.850Z,8.00
2022-12-05T11:50:32.699Z,10.10
2022-12-05T11:53:22.620Z,7.50
2022-12-05T11:56:11.562Z,7.60
2022-12-05T11:59:04.071Z,8.50
2022-12-05T12:02:03.216Z,6.80
2022-12-05T12:04:59.173Z,9.10
2022-12-05T12:07:57.644Z,8.10
2022-12-05T12:11:03.395Z,10.20
2022-12-05T12:14:00.499Z,7.70
2022-12-05T12:16:40.883Z,7.40
2022-12-05T12:19:36.670Z,8.10
2022-12-05T12:22:21.692Z,8.40
2022-12-05T12:25:11.163Z,8.00
2022-12-05T12:27:51.029Z,8.80
2022-12-05T12:30:31.848Z,9.50
2022-12-05T12:33:31.113Z,7.30
2022-12-05T12:36:01.759Z,8.20
2022-12-05T12:38:52.809Z,9.80
2022-12-05T12:44:06.015Z,8.60
2022-12-05T12:46:43.569Z,8.10
2022-12-05T12:49:14.552Z,7.40
2022-12-05T12:55:03.831Z,8.70
2022-12-05T12:58:02.399Z,9.20
2022-12-05T13:01:06.329Z,7.70
2022-12-05T13:03:41.651Z,7.50
2022-12-05T13:06:18.396Z,6.80
2022-12-05T13:08:55.093Z,7.70
2022-12-05T13:11:23.780Z,7.40
2022-12-05T13:13:56.330Z,7.20
2022-12-05T13:16:29.156Z,8.10
2022-12-05T13:18:57.746Z,7.60
2022-12-05T13:21:26.464Z,7.20
2022-12-05T13:23:59.257Z,6.80
2022-12-05T13:26:27.160Z,7.60
2022-12-05T13:28:58.650Z,7.50
2022-12-05T13:31:41.666Z,6.90
2022-12-05T13:34:29.994Z,8.00
2022-12-05T13:37:18.080Z,7.30
2022-12-05T13:42:12.962Z,10.20
2022-12-05T13:44:55.513Z,8.70
2022-12-05T13:47:28.954Z,8.00
2022-12-05T13:50:29.244Z,7.60
2022-12-05T13:53:02.074Z,7.40
2022-12-05T13:55:39.260Z,7.90
2022-12-05T13:58:38.288Z,7.70
2022-12-05T14:01:46.522Z,7.40
2022-12-05T14:04:41.914Z,7.10
2022-12-05T14:07:11.237Z,7.60
2022-12-05T14:09:52.263Z,7.00
2022-12-05T14:12:20.100Z,6.50
2022-12-05T14:14:57.233Z,6.70
2022-12-05T14:17:29.492Z,7.10
2022-12-05T14:20:15.450Z,6.90
2022-12-05T14:22:56.817Z,5.90
2022-12-05T14:25:24.672Z,6.00
2022-12-05T14:28:19.711Z,5.50
2022-12-05T14:30:53.298Z,5.90
2022-12-05T14:33:23.352Z,8.00
2022-12-05T14:35:53.418Z,7.40
2022-12-05T14:38:27.563Z,7.80
2022-12-05T14:41:06.183Z,7.40
2022-12-05T14:43:35.740Z,7.80
2022-12-05T14:46:15.301Z,7.80
2022-12-05T14:48:48.456Z,7.20
2022-12-05T14:51:31.551Z,7.30
2022-12-05T14:54:12.156Z,8.50
2022-12-05T14:56:43.391Z,7.80
2022-12-05T14:59:30.222Z,8.50
2022-12-05T15:02:01.226Z,8.00
2022-12-05T15:04:33.532Z,8.00
2022-12-05T15:07:09.914Z,8.00
2022-12-05T15:09:49.768Z,9.80
2022-12-05T15:12:22.159Z,9.00
2022-12-05T15:14:57.122Z,7.50
2022-12-05T15:17:30.501Z,7.40
2022-12-05T15:20:06.460Z,8.50
2022-12-05T15:22:37.964Z,8.50
2022-12-05T15:25:35.558Z,8.10
2022-12-05T15:28:20.031Z,8.40
2022-12-05T15:30:56.341Z,8.70
2022-12-05T15:33:26.698Z,9.20
2022-12-05T15:35:55.903Z,7.80
2022-12-05T15:38:30.578Z,7.70
2022-12-05T15:40:58.470Z,7.90
2022-12-05T15:43:34.535Z,6.80
2022-12-05T15:46:24.545Z,7.30
2022-12-05T15:48:54.571Z,6.90
2022-12-05T15:51:32.599Z,6.20
2022-12-05T15:54:17.478Z,6.20
2022-12-05T15:57:01.239Z,4.90
2022-12-05T15:59:33.277Z,7.00
2022-12-05T16:02:31.559Z,7.70
2022-12-05T16:05:00.825Z,7.00
2022-12-05T16:07:31.034Z,6.80
2022-12-05T16:10:00.846Z,7.70
2022-12-05T16:12:39.909Z,12.80
2022-12-05T16:15:20.675Z,11.70
2022-12-05T16:17:56.090Z,10.10
2022-12-05T16:20:29.948Z,10.40
2022-12-05T16:23:06.523Z,10.00
2022-12-05T16:25:36.889Z,8.90
2022-12-05T16:28:07.681Z,8.20
2022-12-05T16:33:08.166Z,6.80
2022-12-05T16:35:39.486Z,8.30
2022-12-05T16:38:12.164Z,8.20
2022-12-05T16:40:45.812Z,10.90
2022-12-05T16:43:37.005Z,11.40
2022-12-05T16:46:14.091Z,12.50
2022-12-05T16:48:48.684Z,9.80
2022-12-05T16:51:25.642Z,9.80
2022-12-05T16:53:55.445Z,8.60
2022-12-05T16:56:26.844Z,7.60
2022-12-05T16:58:54.812Z,9.40
2022-12-05T17:01:25.452Z,8.10
2022-12-05T17:06:24.344Z,7.10
2022-12-05T17:08:53.860Z,6.90
2022-12-05T17:11:34.252Z,7.20
2022-12-05T17:14:02.951Z,8.70
2022-12-05T17:16:30.960Z,8.50
2022-12-05T17:18:59.034Z,7.20
2022-12-05T17:21:30.809Z,7.40
2022-12-05T17:23:58.567Z,7.30
2022-12-05T17:26:26.525Z,7.20
2022-12-05T17:28:54.339Z,8.20
2022-12-05T17:31:25.006Z,8.20
2022-12-05T17:33:54.081Z,8.30
2022-12-05T17:36:22.411Z,8.30
2022-12-05T17:38:50.661Z,8.60
2022-12-05T17:41:21.381Z,9.40
2022-12-05T17:43:49.932Z,9.80
2022-12-05T17:46:23.332Z,8.30
2022-12-05T17:48:51.969Z,9.00
2022-12-05T17:51:21.285Z,9.20
2022-12-05T17:53:50.113Z,6.70
2022-12-05T17:56:21.188Z,7.80
2022-12-05T17:58:49.692Z,7.50
2022-12-05T18:01:21.687Z,7.10
2022-12-05T18:03:50.215Z,8.40
2022-12-05T18:06:18.767Z,6.60
2022-12-05T18:08:46.593Z,5.70
2022-12-05T18:11:15.310Z,6.50
2022-12-05T18:13:43.132Z,6.90
2022-12-05T18:16:11.518Z,7.00
2022-12-05T18:18:39.679Z,6.90
2022-12-05T18:21:12.579Z,6.80
2022-12-05T18:23:41.386Z,7.30
2022-12-05T18:26:10.718Z,7.60
2022-12-05T18:28:39.864Z,7.40
2022-12-05T18:31:17.344Z,8.00
2022-12-05T18:33:46.783Z,8.60
2022-12-05T18:36:20.526Z,9.20
2022-12-05T18:38:58.335Z,9.00
2022-12-05T18:41:28.005Z,8.80
2022-12-05T18:43:59.401Z,9.30
2022-12-05T18:46:29.415Z,10.00
2022-12-05T18:49:03.453Z,12.10
2022-12-05T18:51:36.153Z,10.50
2022-12-05T18:54:04.766Z,11.20
2022-12-05T18:56:36.094Z,12.00
2022-12-05T18:59:09.204Z,11.40
2022-12-05T19:01:41.895Z,13.50
2022-12-05T19:04:16.262Z,12.20
2022-12-05T19:06:53.227Z,12.00
2022-12-05T19:09:28.163Z,13.90
2022-12-05T19:12:02.743Z,13.20
2022-12-05T19:14:33.445Z,14.00
2022-12-05T19:17:02.130Z,13.80
2022-12-05T19:19:30.284Z,12.80
2022-12-05T19:21:59.810Z,13.40
2022-12-05T19:24:27.820Z,12.30
2022-12-05T19:26:55.692Z,13.90
2022-12-05T19:29:23.677Z,14.00
2022-12-05T19:31:51.791Z,9.80
2022-12-05T19:34:20.014Z,12.90
2022-12-05T19:36:48.041Z,11.10
2022-12-05T19:39:19.033Z,12.60
2022-12-05T19:41:47.412Z,12.70
2022-12-05T19:44:15.347Z,13.30
2022-12-05T19:46:43.258Z,15.90
2022-12-05T19:49:13.562Z,12.70
2022-12-05T19:51:42.299Z,10.80
2022-12-05T19:54:12.375Z,11.90
2022-12-05T19:56:40.621Z,13.00
2022-12-05T19:59:08.583Z,13.40
2022-12-05T20:01:39.452Z,17.40
2022-12-05T20:04:13.028Z,17.10
2022-12-05T20:06:49.502Z,16.30
2022-12-05T20:09:27.135Z,17.40
2022-12-05T20:11:56.021Z,13.20
2022-12-05T20:14:25.843Z,14.20
2022-12-05T20:16:53.991Z,14.40
2022-12-05T20:19:23.425Z,12.30
2022-12-05T20:21:51.395Z,12.80
2022-12-05T20:24:19.150Z,13.50
2022-12-05T20:26:47.088Z,12.70
2022-12-05T20:29:15.056Z,13.50
2022-12-05T20:31:43.380Z,13.70
2022-12-05T20:34:14.095Z,13.30
2022-12-05T20:39:14.531Z,11.00
2022-12-05T20:41:43.018Z,10.70
2022-12-05T20:44:13.829Z,11.70
2022-12-05T20:49:14.507Z,12.20
2022-12-05T20:51:43.987Z,11.90
2022-12-05T20:54:13.666Z,12.20
2022-12-05T20:56:41.589Z,10.70
2022-12-05T20:59:12.179Z,11.20
2022-12-05T21:01:40.949Z,10.10
2022-12-05T21:04:10.566Z,10.50
2022-12-05T21:06:42.642Z,8.80
2022-12-05T21:09:15.996Z,10.30
2022-12-05T21:11:45.014Z,12.60
2022-12-05T21:14:12.813Z,10.70
2022-12-05T21:16:40.787Z,10.80
2022-12-05T21:19:09.099Z,13.50
2022-12-05T21:21:37.601Z,13.30
2022-12-05T21:24:06.316Z,13.10
2022-12-05T21:26:35.224Z,11.50
2022-12-05T21:29:05.584Z,12.50
2022-12-05T21:31:36.544Z,12.40
2022-12-05T21:34:13.009Z,10.20
2022-12-05T21:36:41.234Z,10.30
2022-12-05T21:39:09.295Z,12.20
2022-12-05T21:41:37.182Z,11.70
2022-12-05T21:44:05.472Z,11.60
2022-12-05T21:46:33.725Z,11.00
2022-12-05T21:49:01.763Z,12.70
2022-12-05T21:51:29.679Z,13.60
2022-12-05T21:53:57.583Z,14.20
2022-12-05T21:56:25.657Z,14.50
2022-12-05T21:58:53.608Z,12.90
2022-12-05T22:01:27.756Z,13.90
2022-12-05T22:03:59.644Z,13.70
2022-12-05T22:06:30.088Z,8.60
2022-12-05T22:08:57.993Z,12.30
2022-12-05T22:11:26.192Z,12.00
2022-12-05T22:13:54.252Z,12.40
2022-12-05T22:16:25.359Z,11.40
2022-12-05T22:18:57.061Z,12.80
2022-12-05T22:21:25.387Z,10.30
2022-12-05T22:23:53.256Z,10.30
2022-12-05T22:26:23.597Z,9.40
2022-12-05T22:28:53.102Z,9.60
2022-12-05T22:31:21.883Z,8.80
2022-12-05T22:33:50.173Z,8.40
2022-12-05T22:36:19.851Z,9.40
2022-12-05T22:38:48.200Z,9.10
2022-12-05T22:41:18.656Z,9.30
2022-12-05T22:43:48.333Z,9.20
2022-12-05T22:46:18.841Z,10.10
2022-12-05T22:48:48.384Z,9.10
2022-12-05T22:51:18.033Z,7.90
2022-12-05T22:53:46.796Z,8.70
2022-12-05T22:56:17.162Z,8.60
2022-12-05T22:58:46.013Z,10.70
2022-12-05T23:01:23.394Z,11.60
2022-12-05T23:03:56.184Z,10.20
2022-12-05T23:06:24.054Z,10.30
2022-12-05T23:08:51.900Z,11.40
2022-12-05T23:11:21.032Z,9.80
2022-12-05T23:13:49.474Z,10.60
2022-12-05T23:16:24.171Z,9.90
2022-12-05T23:18:56.883Z,8.30
2022-12-05T23:21:30.262Z,10.10
2022-12-05T23:24:03.077Z,13.10
2022-12-05T23:26:40.516Z,10.80
2022-12-05T23:29:08.868Z,13.00
2022-12-05T23:31:41.887Z,11.20
2022-12-05T23:34:10.563Z,11.30
2022-12-05T23:39:21.095Z,10.20
2022-12-05T23:41:50.150Z,9.10
2022-12-05T23:44:21.621Z,7.90
2022-12-05T23:46:57.042Z,11.00
2022-12-05T23:49:29.290Z,9.60
2022-12-05T23:52:03.520Z,10.50
2022-12-05T23:54:31.450Z,9.20
2022-12-05T23:56:59.307Z,9.50
2022-12-05T23:59:27.591Z,9.20
